sensor_id;sensor_type;location;lat;lon;timestamp;P1;durP1;ratioP1;P2;durP2;ratioP2
37305;SDS011;23193;42.656;21.170;2023-09-12T00:02:17;16.13;;;7.00;;
37305;SDS011;23193;42.656;21.170;2023-09-12T00:04:45;16.38;;;6.38;;
37305;SDS011;23193;42.656;21.170;2023-09-12T00:07:13;21.55;;;6.80;;
37305;SDS011;23193;42.656;21.170;2023-09-12T00:09:41;18.67;;;6.95;;
37305;SDS011;23193;42.656;21.170;2023-09-12T00:12:08;14.15;;;6.97;;
37305;SDS011;23193;42.656;21.170;2023-09-12T00:14:36;15.18;;;5.93;;
37305;SDS011;23193;42.656;21.170;2023-09-12T00:17:04;17.25;;;6.35;;
37305;SDS011;23193;42.656;21.170;2023-09-12T00:19:32;15.55;;;6.03;;
37305;SDS011;23193;42.656;21.170;2023-09-12T00:22:00;14.27;;;5.32;;
37305;SDS011;23193;42.656;21.170;2023-09-12T00:24:27;11.50;;;5.38;;
37305;SDS011;23193;42.656;21.170;2023-09-12T00:26:55;24.15;;;6.50;;
37305;SDS011;23193;42.656;21.170;2023-09-12T00:29:23;12.48;;;5.70;;
37305;SDS011;23193;42.656;21.170;2023-09-12T00:31:51;18.45;;;5.85;;
37305;SDS011;23193;42.656;21.170;2023-09-12T00:34:19;27.45;;;6.55;;
37305;SDS011;23193;42.656;21.170;2023-09-12T00:36:47;18.85;;;6.30;;
37305;SDS011;23193;42.656;21.170;2023-09-12T00:39:14;12.50;;;5.30;;
37305;SDS011;23193;42.656;21.170;2023-09-12T00:41:43;11.95;;;5.78;;
37305;SDS011;23193;42.656;21.170;2023-09-12T00:44:11;14.07;;;6.03;;
37305;SDS011;23193;42.656;21.170;2023-09-12T00:46:39;16.23;;;8.43;;
37305;SDS011;23193;42.656;21.170;2023-09-12T00:49:07;25.73;;;11.95;;
37305;SDS011;23193;42.656;21.170;2023-09-12T00:51:35;31.45;;;15.75;;
37305;SDS011;23193;42.656;21.170;2023-09-12T00:54:04;37.33;;;16.17;;
37305;SDS011;23193;42.656;21.170;2023-09-12T00:56:32;32.92;;;17.83;;
37305;SDS011;23193;42.656;21.170;2023-09-12T00:59:00;38.75;;;15.90;;
37305;SDS011;23193;42.656;21.170;2023-09-12T01:01:29;32.03;;;15.57;;
37305;SDS011;23193;42.656;21.170;2023-09-12T01:03:57;26.48;;;14.32;;
37305;SDS011;23193;42.656;21.170;2023-09-12T01:06:25;24.73;;;13.27;;
37305;SDS011;23193;42.656;21.170;2023-09-12T01:08:54;24.33;;;13.00;;
37305;SDS011;23193;42.656;21.170;2023-09-12T01:11:23;24.65;;;11.73;;
37305;SDS011;23193;42.656;21.170;2023-09-12T01:13:51;21.20;;;11.63;;
37305;SDS011;23193;42.656;21.170;2023-09-12T01:16:19;23.20;;;10.35;;
37305;SDS011;23193;42.656;21.170;2023-09-12T01:18:47;24.23;;;10.88;;
37305;SDS011;23193;42.656;21.170;2023-09-12T01:26:27;17.17;;;8.20;;
37305;SDS011;23193;42.656;21.170;2023-09-12T01:28:57;14.07;;;6.10;;
37305;SDS011;23193;42.656;21.170;2023-09-12T01:31:25;17.25;;;6.93;;
37305;SDS011;23193;42.656;21.170;2023-09-12T01:33:55;13.50;;;6.40;;
37305;SDS011;23193;42.656;21.170;2023-09-12T01:36:24;12.43;;;6.47;;
37305;SDS011;23193;42.656;21.170;2023-09-12T01:38:52;21.45;;;8.32;;
37305;SDS011;23193;42.656;21.170;2023-09-12T01:41:20;17.60;;;7.13;;
37305;SDS011;23193;42.656;21.170;2023-09-12T01:43:48;18.05;;;6.82;;
37305;SDS011;23193;42.656;21.170;2023-09-12T01:46:17;21.23;;;8.20;;
37305;SDS011;23193;42.656;21.170;2023-09-12T01:48:45;15.40;;;5.90;;
37305;SDS011;23193;42.656;21.170;2023-09-12T01:51:14;15.32;;;6.78;;
37305;SDS011;23193;42.656;21.170;2023-09-12T01:53:42;14.00;;;6.45;;
37305;SDS011;23193;42.656;21.170;2023-09-12T01:56:12;22.83;;;7.27;;
37305;SDS011;23193;42.656;21.170;2023-09-12T01:58:40;18.15;;;6.63;;
37305;SDS011;23193;42.656;21.170;2023-09-12T02:01:09;13.80;;;6.68;;
37305;SDS011;23193;42.656;21.170;2023-09-12T02:03:37;16.48;;;7.05;;
37305;SDS011;23193;42.656;21.170;2023-09-12T02:06:05;12.80;;;6.50;;
37305;SDS011;23193;42.656;21.170;2023-09-12T02:08:33;13.18;;;6.70;;
37305;SDS011;23193;42.656;21.170;2023-09-12T02:11:01;16.90;;;6.60;;
37305;SDS011;23193;42.656;21.170;2023-09-12T02:13:28;12.25;;;6.75;;
37305;SDS011;23193;42.656;21.170;2023-09-12T02:16:00;17.52;;;7.72;;
37305;SDS011;23193;42.656;21.170;2023-09-12T02:18:28;12.60;;;6.88;;
37305;SDS011;23193;42.656;21.170;2023-09-12T02:20:58;14.30;;;6.40;;
37305;SDS011;23193;42.656;21.170;2023-09-12T02:23:25;11.43;;;5.97;;
37305;SDS011;23193;42.656;21.170;2023-09-12T02:25:53;16.90;;;6.22;;
37305;SDS011;23193;42.656;21.170;2023-09-12T02:28:21;20.23;;;6.10;;
37305;SDS011;23193;42.656;21.170;2023-09-12T02:30:49;21.10;;;6.72;;
37305;SDS011;23193;42.656;21.170;2023-09-12T02:33:17;15.43;;;6.30;;
37305;SDS011;23193;42.656;21.170;2023-09-12T02:35:45;28.13;;;6.65;;
37305;SDS011;23193;42.656;21.170;2023-09-12T02:38:13;14.13;;;6.05;;
37305;SDS011;23193;42.656;21.170;2023-09-12T02:40:41;12.07;;;5.13;;
37305;SDS011;23193;42.656;21.170;2023-09-12T02:43:09;11.82;;;5.75;;
37305;SDS011;23193;42.656;21.170;2023-09-12T02:45:37;14.38;;;5.78;;
37305;SDS011;23193;42.656;21.170;2023-09-12T02:48:05;11.77;;;5.50;;
37305;SDS011;23193;42.656;21.170;2023-09-12T02:50:33;18.67;;;6.15;;
37305;SDS011;23193;42.656;21.170;2023-09-12T02:53:01;10.15;;;5.80;;
37305;SDS011;23193;42.656;21.170;2023-09-12T02:55:28;11.35;;;6.10;;
37305;SDS011;23193;42.656;21.170;2023-09-12T02:57:56;13.10;;;5.30;;
37305;SDS011;23193;42.656;21.170;2023-09-12T03:00:24;11.30;;;6.22;;
37305;SDS011;23193;42.656;21.170;2023-09-12T03:02:52;11.25;;;6.00;;
37305;SDS011;23193;42.656;21.170;2023-09-12T03:05:20;13.80;;;6.20;;
37305;SDS011;23193;42.656;21.170;2023-09-12T03:07:48;11.35;;;5.63;;
37305;SDS011;23193;42.656;21.170;2023-09-12T03:10:16;18.52;;;6.45;;
37305;SDS011;23193;42.656;21.170;2023-09-12T03:12:44;23.25;;;12.60;;
37305;SDS011;23193;42.656;21.170;2023-09-12T03:15:12;39.75;;;19.30;;
37305;SDS011;23193;42.656;21.170;2023-09-12T03:17:40;30.13;;;16.23;;
37305;SDS011;23193;42.656;21.170;2023-09-12T03:20:08;35.35;;;18.95;;
37305;SDS011;23193;42.656;21.170;2023-09-12T03:22:36;38.80;;;21.08;;
37305;SDS011;23193;42.656;21.170;2023-09-12T03:25:06;34.72;;;20.35;;
37305;SDS011;23193;42.656;21.170;2023-09-12T03:27:34;28.17;;;16.58;;
37305;SDS011;23193;42.656;21.170;2023-09-12T03:30:03;30.92;;;13.88;;
37305;SDS011;23193;42.656;21.170;2023-09-12T03:32:31;30.50;;;14.60;;
37305;SDS011;23193;42.656;21.170;2023-09-12T03:34:59;31.02;;;13.07;;
37305;SDS011;23193;42.656;21.170;2023-09-12T03:37:27;24.83;;;11.20;;
37305;SDS011;23193;42.656;21.170;2023-09-12T03:39:55;20.92;;;10.43;;
37305;SDS011;23193;42.656;21.170;2023-09-12T03:42:23;18.38;;;9.55;;
37305;SDS011;23193;42.656;21.170;2023-09-12T03:45:04;21.23;;;9.85;;
37305;SDS011;23193;42.656;21.170;2023-09-12T03:47:32;22.60;;;10.27;;
37305;SDS011;23193;42.656;21.170;2023-09-12T03:50:00;27.85;;;10.75;;
37305;SDS011;23193;42.656;21.170;2023-09-12T03:52:29;22.75;;;12.70;;
37305;SDS011;23193;42.656;21.170;2023-09-12T03:54:57;35.67;;;18.35;;
37305;SDS011;23193;42.656;21.170;2023-09-12T03:57:28;39.70;;;18.30;;
37305;SDS011;23193;42.656;21.170;2023-09-12T03:59:56;29.67;;;13.75;;
37305;SDS011;23193;42.656;21.170;2023-09-12T04:02:24;21.33;;;12.00;;
37305;SDS011;23193;42.656;21.170;2023-09-12T04:04:52;23.45;;;10.25;;
37305;SDS011;23193;42.656;21.170;2023-09-12T04:07:20;19.42;;;9.93;;
37305;SDS011;23193;42.656;21.170;2023-09-12T04:09:48;16.55;;;9.10;;
37305;SDS011;23193;42.656;21.170;2023-09-12T04:12:16;17.45;;;9.27;;
37305;SDS011;23193;42.656;21.170;2023-09-12T04:14:43;17.27;;;7.72;;
37305;SDS011;23193;42.656;21.170;2023-09-12T04:17:12;20.13;;;7.93;;
37305;SDS011;23193;42.656;21.170;2023-09-12T04:19:39;18.40;;;7.55;;
37305;SDS011;23193;42.656;21.170;2023-09-12T04:22:07;15.95;;;7.75;;
37305;SDS011;23193;42.656;21.170;2023-09-12T04:24:35;17.40;;;8.57;;
37305;SDS011;23193;42.656;21.170;2023-09-12T04:27:03;25.38;;;8.20;;
37305;SDS011;23193;42.656;21.170;2023-09-12T04:29:32;25.48;;;8.18;;
37305;SDS011;23193;42.656;21.170;2023-09-12T04:32:03;14.73;;;7.85;;
37305;SDS011;23193;42.656;21.170;2023-09-12T04:34:32;19.23;;;9.32;;
37305;SDS011;23193;42.656;21.170;2023-09-12T04:37:00;20.08;;;8.10;;
37305;SDS011;23193;42.656;21.170;2023-09-12T04:39:30;17.33;;;8.45;;
37305;SDS011;23193;42.656;21.170;2023-09-12T04:41:58;24.20;;;8.88;;
37305;SDS011;23193;42.656;21.170;2023-09-12T04:44:26;14.93;;;7.38;;
37305;SDS011;23193;42.656;21.170;2023-09-12T04:46:53;23.85;;;7.82;;
37305;SDS011;23193;42.656;21.170;2023-09-12T04:49:22;22.02;;;7.95;;
37305;SDS011;23193;42.656;21.170;2023-09-12T04:51:50;20.65;;;9.02;;
37305;SDS011;23193;42.656;21.170;2023-09-12T04:54:18;21.38;;;10.27;;
37305;SDS011;23193;42.656;21.170;2023-09-12T04:56:46;20.85;;;9.55;;
37305;SDS011;23193;42.656;21.170;2023-09-12T04:59:14;21.73;;;10.88;;
37305;SDS011;23193;42.656;21.170;2023-09-12T05:01:42;24.05;;;10.52;;
37305;SDS011;23193;42.656;21.170;2023-09-12T05:04:10;21.60;;;10.77;;
37305;SDS011;23193;42.656;21.170;2023-09-12T05:06:38;20.60;;;9.20;;
37305;SDS011;23193;42.656;21.170;2023-09-12T05:09:07;21.23;;;9.07;;
37305;SDS011;23193;42.656;21.170;2023-09-12T05:11:36;27.00;;;8.05;;
37305;SDS011;23193;42.656;21.170;2023-09-12T05:14:04;27.70;;;8.25;;
37305;SDS011;23193;42.656;21.170;2023-09-12T05:16:32;23.15;;;8.40;;
37305;SDS011;23193;42.656;21.170;2023-09-12T05:19:00;18.33;;;8.00;;
37305;SDS011;23193;42.656;21.170;2023-09-12T05:21:29;31.42;;;8.30;;
37305;SDS011;23193;42.656;21.170;2023-09-12T05:23:57;24.60;;;9.07;;
37305;SDS011;23193;42.656;21.170;2023-09-12T05:26:25;24.80;;;8.63;;
37305;SDS011;23193;42.656;21.170;2023-09-12T05:28:53;30.25;;;8.68;;
37305;SDS011;23193;42.656;21.170;2023-09-12T05:31:21;39.60;;;8.93;;
37305;SDS011;23193;42.656;21.170;2023-09-12T05:33:49;18.98;;;7.53;;
37305;SDS011;23193;42.656;21.170;2023-09-12T05:36:21;22.65;;;7.50;;
37305;SDS011;23193;42.656;21.170;2023-09-12T05:38:49;18.95;;;6.55;;
37305;SDS011;23193;42.656;21.170;2023-09-12T05:41:17;26.00;;;8.43;;
37305;SDS011;23193;42.656;21.170;2023-09-12T05:43:45;25.30;;;8.60;;
37305;SDS011;23193;42.656;21.170;2023-09-12T05:46:12;34.95;;;11.82;;
37305;SDS011;23193;42.656;21.170;2023-09-12T05:48:41;62.60;;;21.52;;
37305;SDS011;23193;42.656;21.170;2023-09-12T05:51:09;41.28;;;15.07;;
37305;SDS011;23193;42.656;21.170;2023-09-12T05:53:38;30.33;;;8.55;;
37305;SDS011;23193;42.656;21.170;2023-09-12T05:56:06;30.70;;;8.13;;
37305;SDS011;23193;42.656;21.170;2023-09-12T05:58:34;25.25;;;7.78;;
37305;SDS011;23193;42.656;21.170;2023-09-12T06:01:03;34.50;;;8.85;;
37305;SDS011;23193;42.656;21.170;2023-09-12T06:03:31;24.70;;;8.32;;
37305;SDS011;23193;42.656;21.170;2023-09-12T06:05:59;27.00;;;7.78;;
37305;SDS011;23193;42.656;21.170;2023-09-12T06:08:26;27.33;;;9.02;;
37305;SDS011;23193;42.656;21.170;2023-09-12T06:10:54;26.42;;;8.63;;
37305;SDS011;23193;42.656;21.170;2023-09-12T06:13:22;27.75;;;8.30;;
37305;SDS011;23193;42.656;21.170;2023-09-12T06:15:51;30.38;;;8.82;;
37305;SDS011;23193;42.656;21.170;2023-09-12T06:18:19;24.77;;;8.05;;
37305;SDS011;23193;42.656;21.170;2023-09-12T06:20:47;24.20;;;7.55;;
37305;SDS011;23193;42.656;21.170;2023-09-12T06:23:16;19.45;;;8.82;;
37305;SDS011;23193;42.656;21.170;2023-09-12T06:25:44;18.00;;;7.40;;
37305;SDS011;23193;42.656;21.170;2023-09-12T06:28:12;19.55;;;7.97;;
37305;SDS011;23193;42.656;21.170;2023-09-12T06:30:53;20.03;;;7.47;;
37305;SDS011;23193;42.656;21.170;2023-09-12T06:33:21;37.92;;;8.10;;
37305;SDS011;23193;42.656;21.170;2023-09-12T06:35:49;33.47;;;8.20;;
37305;SDS011;23193;42.656;21.170;2023-09-12T06:38:20;18.13;;;7.60;;
37305;SDS011;23193;42.656;21.170;2023-09-12T06:40:48;24.65;;;8.13;;
37305;SDS011;23193;42.656;21.170;2023-09-12T06:43:16;28.33;;;7.88;;
37305;SDS011;23193;42.656;21.170;2023-09-12T06:45:44;27.80;;;8.27;;
37305;SDS011;23193;42.656;21.170;2023-09-12T06:48:13;24.10;;;6.93;;
37305;SDS011;23193;42.656;21.170;2023-09-12T06:50:40;25.85;;;7.40;;
37305;SDS011;23193;42.656;21.170;2023-09-12T06:53:14;19.67;;;6.97;;
37305;SDS011;23193;42.656;21.170;2023-09-12T06:55:42;28.45;;;8.35;;
37305;SDS011;23193;42.656;21.170;2023-09-12T06:58:10;25.55;;;8.23;;
37305;SDS011;23193;42.656;21.170;2023-09-12T07:00:38;20.90;;;6.70;;
37305;SDS011;23193;42.656;21.170;2023-09-12T07:03:06;19.63;;;7.15;;
37305;SDS011;23193;42.656;21.170;2023-09-12T07:05:35;19.73;;;7.50;;
37305;SDS011;23193;42.656;21.170;2023-09-12T07:08:05;25.38;;;7.93;;
37305;SDS011;23193;42.656;21.170;2023-09-12T07:10:33;28.33;;;7.18;;
37305;SDS011;23193;42.656;21.170;2023-09-12T07:13:02;15.80;;;6.90;;
37305;SDS011;23193;42.656;21.170;2023-09-12T07:15:30;20.30;;;6.60;;
37305;SDS011;23193;42.656;21.170;2023-09-12T07:17:58;20.35;;;6.90;;
37305;SDS011;23193;42.656;21.170;2023-09-12T07:20:26;19.83;;;7.53;;
37305;SDS011;23193;42.656;21.170;2023-09-12T07:22:54;15.38;;;6.60;;
37305;SDS011;23193;42.656;21.170;2023-09-12T07:25:22;25.20;;;7.15;;
37305;SDS011;23193;42.656;21.170;2023-09-12T07:27:50;18.67;;;6.97;;
37305;SDS011;23193;42.656;21.170;2023-09-12T07:30:18;24.60;;;7.03;;
37305;SDS011;23193;42.656;21.170;2023-09-12T07:32:47;16.23;;;5.50;;
37305;SDS011;23193;42.656;21.170;2023-09-12T07:35:15;24.85;;;6.43;;
37305;SDS011;23193;42.656;21.170;2023-09-12T07:37:43;17.77;;;6.80;;
37305;SDS011;23193;42.656;21.170;2023-09-12T07:40:11;22.25;;;6.80;;
37305;SDS011;23193;42.656;21.170;2023-09-12T07:42:39;18.55;;;7.30;;
37305;SDS011;23193;42.656;21.170;2023-09-12T07:45:07;19.05;;;6.95;;
37305;SDS011;23193;42.656;21.170;2023-09-12T07:47:35;18.63;;;6.25;;
37305;SDS011;23193;42.656;21.170;2023-09-12T07:50:04;25.45;;;6.03;;
37305;SDS011;23193;42.656;21.170;2023-09-12T07:52:33;17.38;;;6.30;;
37305;SDS011;23193;42.656;21.170;2023-09-12T07:55:02;19.63;;;6.32;;
37305;SDS011;23193;42.656;21.170;2023-09-12T07:57:30;21.85;;;6.53;;
37305;SDS011;23193;42.656;21.170;2023-09-12T07:59:58;17.02;;;6.78;;
37305;SDS011;23193;42.656;21.170;2023-09-12T08:02:26;20.05;;;7.22;;
37305;SDS011;23193;42.656;21.170;2023-09-12T08:04:54;22.20;;;7.22;;
37305;SDS011;23193;42.656;21.170;2023-09-12T08:07:22;36.42;;;8.18;;
37305;SDS011;23193;42.656;21.170;2023-09-12T08:12:18;27.08;;;6.65;;
37305;SDS011;23193;42.656;21.170;2023-09-12T08:14:46;30.10;;;6.70;;
37305;SDS011;23193;42.656;21.170;2023-09-12T08:17:15;20.65;;;6.82;;
37305;SDS011;23193;42.656;21.170;2023-09-12T08:19:43;21.15;;;7.32;;
37305;SDS011;23193;42.656;21.170;2023-09-12T08:22:11;22.95;;;8.40;;
37305;SDS011;23193;42.656;21.170;2023-09-12T08:24:39;32.90;;;7.40;;
37305;SDS011;23193;42.656;21.170;2023-09-12T08:27:07;20.23;;;6.70;;
37305;SDS011;23193;42.656;21.170;2023-09-12T08:29:37;19.02;;;6.90;;
37305;SDS011;23193;42.656;21.170;2023-09-12T08:32:05;25.92;;;6.97;;
37305;SDS011;23193;42.656;21.170;2023-09-12T08:34:33;22.42;;;7.90;;
37305;SDS011;23193;42.656;21.170;2023-09-12T08:37:01;36.10;;;10.02;;
37305;SDS011;23193;42.656;21.170;2023-09-12T08:39:40;17.33;;;5.53;;
37305;SDS011;23193;42.656;21.170;2023-09-12T08:42:11;14.27;;;5.65;;
37305;SDS011;23193;42.656;21.170;2023-09-12T08:44:40;16.20;;;6.40;;
37305;SDS011;23193;42.656;21.170;2023-09-12T08:47:09;16.30;;;6.30;;
37305;SDS011;23193;42.656;21.170;2023-09-12T08:49:37;17.75;;;6.30;;
37305;SDS011;23193;42.656;21.170;2023-09-12T08:52:05;15.98;;;6.30;;
37305;SDS011;23193;42.656;21.170;2023-09-12T08:54:33;16.15;;;5.65;;
37305;SDS011;23193;42.656;21.170;2023-09-12T08:57:01;18.70;;;6.45;;
37305;SDS011;23193;42.656;21.170;2023-09-12T08:59:34;16.70;;;5.43;;
37305;SDS011;23193;42.656;21.170;2023-09-12T09:02:02;22.88;;;6.10;;
37305;SDS011;23193;42.656;21.170;2023-09-12T09:04:30;16.52;;;5.78;;
37305;SDS011;23193;42.656;21.170;2023-09-12T09:06:58;19.50;;;5.28;;
37305;SDS011;23193;42.656;21.170;2023-09-12T09:09:27;12.00;;;5.90;;
37305;SDS011;23193;42.656;21.170;2023-09-12T09:11:55;14.70;;;6.47;;
37305;SDS011;23193;42.656;21.170;2023-09-12T09:14:23;12.27;;;5.07;;
37305;SDS011;23193;42.656;21.170;2023-09-12T09:16:51;16.52;;;5.80;;
37305;SDS011;23193;42.656;21.170;2023-09-12T09:19:19;11.07;;;5.00;;
37305;SDS011;23193;42.656;21.170;2023-09-12T09:21:47;20.67;;;5.82;;
37305;SDS011;23193;42.656;21.170;2023-09-12T09:24:16;20.30;;;5.30;;
37305;SDS011;23193;42.656;21.170;2023-09-12T09:26:46;13.18;;;4.68;;
37305;SDS011;23193;42.656;21.170;2023-09-12T09:29:15;17.35;;;5.05;;
37305;SDS011;23193;42.656;21.170;2023-09-12T09:31:47;13.73;;;4.88;;
37305;SDS011;23193;42.656;21.170;2023-09-12T09:34:15;14.68;;;4.70;;
37305;SDS011;23193;42.656;21.170;2023-09-12T09:36:53;12.07;;;4.87;;
37305;SDS011;23193;42.656;21.170;2023-09-12T09:39:22;15.88;;;5.07;;
37305;SDS011;23193;42.656;21.170;2023-09-12T09:41:51;14.85;;;4.85;;
37305;SDS011;23193;42.656;21.170;2023-09-12T09:44:23;19.23;;;6.20;;
37305;SDS011;23193;42.656;21.170;2023-09-12T09:47:00;18.45;;;4.43;;
37305;SDS011;23193;42.656;21.170;2023-09-12T09:49:32;12.70;;;4.35;;
37305;SDS011;23193;42.656;21.170;2023-09-12T09:52:04;12.30;;;4.35;;
37305;SDS011;23193;42.656;21.170;2023-09-12T09:54:32;13.48;;;3.97;;
37305;SDS011;23193;42.656;21.170;2023-09-12T09:57:00;15.00;;;4.20;;
37305;SDS011;23193;42.656;21.170;2023-09-12T09:59:29;16.17;;;4.60;;
37305;SDS011;23193;42.656;21.170;2023-09-12T10:01:58;11.98;;;4.10;;
37305;SDS011;23193;42.656;21.170;2023-09-12T10:04:29;14.80;;;4.53;;
37305;SDS011;23193;42.656;21.170;2023-09-12T10:07:11;14.52;;;5.38;;
37305;SDS011;23193;42.656;21.170;2023-09-12T10:09:40;13.32;;;4.25;;
37305;SDS011;23193;42.656;21.170;2023-09-12T10:12:09;15.20;;;4.72;;
37305;SDS011;23193;42.656;21.170;2023-09-12T10:14:37;25.55;;;6.50;;
37305;SDS011;23193;42.656;21.170;2023-09-12T10:17:07;16.05;;;4.65;;
37305;SDS011;23193;42.656;21.170;2023-09-12T10:22:07;21.40;;;5.00;;
37305;SDS011;23193;42.656;21.170;2023-09-12T10:24:37;17.33;;;5.53;;
37305;SDS011;23193;42.656;21.170;2023-09-12T10:27:06;11.05;;;5.70;;
37305;SDS011;23193;42.656;21.170;2023-09-12T10:29:35;15.20;;;4.30;;
37305;SDS011;23193;42.656;21.170;2023-09-12T10:32:03;15.77;;;5.82;;
37305;SDS011;23193;42.656;21.170;2023-09-12T10:34:31;13.63;;;5.88;;
37305;SDS011;23193;42.656;21.170;2023-09-12T10:36:59;29.45;;;9.43;;
37305;SDS011;23193;42.656;21.170;2023-09-12T10:39:28;20.52;;;6.30;;
37305;SDS011;23193;42.656;21.170;2023-09-12T10:41:57;30.60;;;5.90;;
37305;SDS011;23193;42.656;21.170;2023-09-12T10:44:26;15.77;;;4.00;;
37305;SDS011;23193;42.656;21.170;2023-09-12T10:46:54;16.17;;;3.92;;
37305;SDS011;23193;42.656;21.170;2023-09-12T10:49:22;23.58;;;4.93;;
37305;SDS011;23193;42.656;21.170;2023-09-12T10:51:53;17.08;;;4.55;;
37305;SDS011;23193;42.656;21.170;2023-09-12T10:54:25;23.42;;;4.53;;
37305;SDS011;23193;42.656;21.170;2023-09-12T10:57:03;15.35;;;6.85;;
37305;SDS011;23193;42.656;21.170;2023-09-12T10:59:31;22.95;;;5.03;;
37305;SDS011;23193;42.656;21.170;2023-09-12T11:04:49;24.85;;;4.85;;
37305;SDS011;23193;42.656;21.170;2023-09-12T11:07:50;14.20;;;4.63;;
37305;SDS011;23193;42.656;21.170;2023-09-12T11:12:43;15.15;;;4.25;;
37305;SDS011;23193;42.656;21.170;2023-09-12T11:15:11;16.02;;;4.00;;
37305;SDS011;23193;42.656;21.170;2023-09-12T11:17:39;22.98;;;6.70;;
37305;SDS011;23193;42.656;21.170;2023-09-12T11:20:08;25.02;;;5.05;;
37305;SDS011;23193;42.656;21.170;2023-09-12T11:22:44;26.27;;;4.50;;
37305;SDS011;23193;42.656;21.170;2023-09-12T11:25:23;18.55;;;4.07;;
37305;SDS011;23193;42.656;21.170;2023-09-12T11:28:01;24.15;;;5.03;;
37305;SDS011;23193;42.656;21.170;2023-09-12T11:30:31;15.15;;;4.57;;
37305;SDS011;23193;42.656;21.170;2023-09-12T11:32:59;17.33;;;4.53;;
37305;SDS011;23193;42.656;21.170;2023-09-12T11:35:28;24.10;;;5.00;;
37305;SDS011;23193;42.656;21.170;2023-09-12T11:37:57;17.52;;;4.68;;
37305;SDS011;23193;42.656;21.170;2023-09-12T11:40:26;22.10;;;3.83;;
37305;SDS011;23193;42.656;21.170;2023-09-12T11:42:54;19.08;;;4.45;;
37305;SDS011;23193;42.656;21.170;2023-09-12T11:45:24;13.45;;;4.25;;
37305;SDS011;23193;42.656;21.170;2023-09-12T11:47:52;16.23;;;4.28;;
37305;SDS011;23193;42.656;21.170;2023-09-12T11:53:04;21.80;;;5.03;;
37305;SDS011;23193;42.656;21.170;2023-09-12T11:55:45;23.90;;;4.10;;
37305;SDS011;23193;42.656;21.170;2023-09-12T11:58:14;19.23;;;3.78;;
37305;SDS011;23193;42.656;21.170;2023-09-12T12:00:52;16.30;;;3.83;;
37305;SDS011;23193;42.656;21.170;2023-09-12T12:03:21;12.55;;;3.95;;
37305;SDS011;23193;42.656;21.170;2023-09-12T12:05:50;16.25;;;3.85;;
37305;SDS011;23193;42.656;21.170;2023-09-12T12:08:18;11.35;;;4.13;;
37305;SDS011;23193;42.656;21.170;2023-09-12T12:10:58;11.15;;;3.45;;
37305;SDS011;23193;42.656;21.170;2023-09-12T12:13:26;17.23;;;3.83;;
37305;SDS011;23193;42.656;21.170;2023-09-12T12:18:25;20.75;;;4.32;;
37305;SDS011;23193;42.656;21.170;2023-09-12T12:20:53;17.48;;;4.55;;
37305;SDS011;23193;42.656;21.170;2023-09-12T12:23:25;14.60;;;3.90;;
37305;SDS011;23193;42.656;21.170;2023-09-12T12:25:53;12.05;;;3.45;;
37305;SDS011;23193;42.656;21.170;2023-09-12T12:28:21;16.30;;;4.00;;
37305;SDS011;23193;42.656;21.170;2023-09-12T12:30:49;21.13;;;3.88;;
37305;SDS011;23193;42.656;21.170;2023-09-12T12:33:19;15.90;;;4.57;;
37305;SDS011;23193;42.656;21.170;2023-09-12T12:36:07;16.08;;;4.15;;
37305;SDS011;23193;42.656;21.170;2023-09-12T12:38:37;14.88;;;4.13;;
37305;SDS011;23193;42.656;21.170;2023-09-12T12:41:21;22.67;;;4.85;;
37305;SDS011;23193;42.656;21.170;2023-09-12T12:43:50;14.45;;;4.43;;
37305;SDS011;23193;42.656;21.170;2023-09-12T12:46:18;16.48;;;3.75;;
37305;SDS011;23193;42.656;21.170;2023-09-12T12:48:48;16.42;;;3.92;;
37305;SDS011;23193;42.656;21.170;2023-09-12T12:51:23;11.70;;;3.50;;
37305;SDS011;23193;42.656;21.170;2023-09-12T12:53:52;22.48;;;4.82;;
37305;SDS011;23193;42.656;21.170;2023-09-12T12:56:22;22.25;;;5.70;;
37305;SDS011;23193;42.656;21.170;2023-09-12T12:58:56;21.85;;;3.97;;
37305;SDS011;23193;42.656;21.170;2023-09-12T13:01:25;20.08;;;7.72;;
37305;SDS011;23193;42.656;21.170;2023-09-12T13:03:53;18.05;;;7.38;;
37305;SDS011;23193;42.656;21.170;2023-09-12T13:06:23;17.70;;;6.22;;
37305;SDS011;23193;42.656;21.170;2023-09-12T13:08:53;14.13;;;4.10;;
37305;SDS011;23193;42.656;21.170;2023-09-12T13:11:21;22.23;;;6.32;;
37305;SDS011;23193;42.656;21.170;2023-09-12T13:13:49;15.73;;;4.38;;
37305;SDS011;23193;42.656;21.170;2023-09-12T13:16:17;21.58;;;5.20;;
37305;SDS011;23193;42.656;21.170;2023-09-12T13:18:45;11.85;;;3.83;;
37305;SDS011;23193;42.656;21.170;2023-09-12T13:21:14;10.13;;;4.05;;
37305;SDS011;23193;42.656;21.170;2023-09-12T13:23:43;16.00;;;5.90;;
37305;SDS011;23193;42.656;21.170;2023-09-12T13:26:11;16.15;;;6.15;;
37305;SDS011;23193;42.656;21.170;2023-09-12T13:28:39;16.15;;;4.72;;
37305;SDS011;23193;42.656;21.170;2023-09-12T13:31:07;18.20;;;4.38;;
37305;SDS011;23193;42.656;21.170;2023-09-12T13:33:36;19.42;;;4.53;;
37305;SDS011;23193;42.656;21.170;2023-09-12T13:36:04;17.85;;;4.50;;
37305;SDS011;23193;42.656;21.170;2023-09-12T13:38:32;17.50;;;4.40;;
37305;SDS011;23193;42.656;21.170;2023-09-12T13:41:00;15.73;;;3.95;;
37305;SDS011;23193;42.656;21.170;2023-09-12T13:43:28;22.17;;;5.38;;
37305;SDS011;23193;42.656;21.170;2023-09-12T13:45:56;21.23;;;6.28;;
37305;SDS011;23193;42.656;21.170;2023-09-12T13:48:24;22.60;;;6.20;;
37305;SDS011;23193;42.656;21.170;2023-09-12T13:50:53;32.53;;;8.23;;
37305;SDS011;23193;42.656;21.170;2023-09-12T13:53:21;29.73;;;6.90;;
37305;SDS011;23193;42.656;21.170;2023-09-12T13:55:49;30.58;;;10.95;;
37305;SDS011;23193;42.656;21.170;2023-09-12T13:58:17;24.92;;;8.38;;
37305;SDS011;23193;42.656;21.170;2023-09-12T14:00:45;30.85;;;7.00;;
37305;SDS011;23193;42.656;21.170;2023-09-12T14:03:13;22.38;;;5.78;;
37305;SDS011;23193;42.656;21.170;2023-09-12T14:05:41;23.05;;;5.70;;
37305;SDS011;23193;42.656;21.170;2023-09-12T14:08:10;31.20;;;6.05;;
37305;SDS011;23193;42.656;21.170;2023-09-12T14:10:38;16.42;;;5.07;;
37305;SDS011;23193;42.656;21.170;2023-09-12T14:13:07;25.27;;;5.55;;
37305;SDS011;23193;42.656;21.170;2023-09-12T14:15:48;11.13;;;3.75;;
37305;SDS011;23193;42.656;21.170;2023-09-12T14:18:18;21.65;;;4.68;;
37305;SDS011;23193;42.656;21.170;2023-09-12T14:20:48;18.95;;;4.75;;
